Time;durP1;ratioP1;P1;durP2;ratioP2;P2;SDS_P1;SDS_P2;PMS_P1;PMS_P2;Temp;Humidity;BMP_temperature;BMP_pressure;BME280_temperature;BME280_humidity;BME280_pressure;Samples;Min_cycle;Max_cycle;Signal;HPM_P1;HPM_P2
2022/06/28 00:01:18;;;;;;;;;;;27.30;47.50;;;;;;1538004;76;1944;-71
2022/06/28 00:03:20;;;;;;;;;;;27.30;47.50;;;;;;1544378;76;784;-69
2022/06/28 00:05:22;;;;;;;;;;;27.20;47.60;;;;;;1537653;76;1105;-70
2022/06/28 00:07:24;;;;;;;;;;;27.30;47.60;;;;;;1532750;76;705;-69
2022/06/28 00:09:27;;;;;;;;;;;27.30;47.50;;;;;;1537395;76;743;-70
2022/06/28 00:11:29;;;;;;;;;;;27.30;47.50;;;;;;1530237;76;691;-72
2022/06/28 00:13:30;;;;;;;;;;;27.30;47.60;;;;;;1530010;76;636;-70
2022/06/28 00:17:52;;;;;;;;;;;27.30;47.50;;;;;;1526615;76;1647;-70
2022/06/28 00:19:54;;;;;;;;;;;27.30;47.50;;;;;;1526709;76;799;-71
2022/06/28 00:21:56;;;;;;;;;;;27.30;47.50;;;;;;1531837;76;1922;-71
2022/06/28 00:23:58;;;;;;;;;;;27.30;47.50;;;;;;1533838;76;664;-71
2022/06/28 00:26:00;;;;;;;;;;;27.30;47.50;;;;;;1535761;76;1159;-72
2022/06/28 00:28:02;;;;;;;;;;;27.30;47.50;;;;;;1534155;76;672;-69
2022/06/28 00:30:04;;;;;;;;;;;27.30;47.40;;;;;;1535837;76;713;-69
2022/06/28 00:32:06;;;;;;;;;;;27.30;47.40;;;;;;1535773;76;679;-70
2022/06/28 00:34:08;;;;;;;;;;;27.30;47.40;;;;;;1527483;76;744;-70
2022/06/28 00:36:10;;;;;;;;;;;27.30;47.40;;;;;;1533870;76;1141;-69
2022/06/28 00:38:12;;;;;;;;;;;27.20;47.40;;;;;;1530576;76;749;-70
2022/06/28 00:40:14;;;;;;;;;;;27.20;47.40;;;;;;1529938;76;640;-70
2022/06/28 00:42:16;;;;;;;;;;;27.20;47.40;;;;;;1528134;76;1623;-69
2022/06/28 00:44:18;;;;;;;;;;;27.30;47.30;;;;;;1529276;76;758;-70
2022/06/28 00:46:20;;;;;;;;;;;27.20;47.30;;;;;;1528507;76;1167;-69
2022/06/28 00:48:22;;;;;;;;;;;27.20;47.30;;;;;;1532951;76;833;-69
2022/06/28 00:50:24;;;;;;;;;;;27.20;47.40;;;;;;1530317;76;660;-69
2022/06/28 00:52:26;;;;;;;;;;;27.20;47.50;;;;;;1539201;76;744;-71
2022/06/28 00:54:29;;;;;;;;;;;27.20;47.30;;;;;;1536193;76;765;-72
2022/06/28 00:56:31;;;;;;;;;;;27.30;47.40;;;;;;1540723;76;1185;-72
2022/06/28 00:58:32;;;;;;;;;;;27.20;47.40;;;;;;1545535;76;714;-72
2022/06/28 01:00:35;;;;;;;;;;;27.30;47.30;;;;;;1530651;76;1931;-69
2022/06/28 01:02:37;;;;;;;;;;;27.20;47.30;;;;;;1526676;76;697;-70
2022/06/28 01:04:39;;;;;;;;;;;27.20;47.40;;;;;;1533237;76;758;-71
2022/06/28 01:06:41;;;;;;;;;;;27.20;47.30;;;;;;1539996;76;1125;-73
2022/06/28 01:08:44;;;;;;;;;;;27.30;47.30;;;;;;1535771;76;762;-69
2022/06/28 01:10:46;;;;;;;;;;;27.20;47.30;;;;;;1529828;76;737;-73
2022/06/28 01:12:48;;;;;;;;;;;27.20;47.30;;;;;;1538420;76;673;-71
2022/06/28 01:14:50;;;;;;;;;;;27.20;47.30;;;;;;1537834;76;786;-69
2022/06/28 01:16:51;;;;;;;;;;;27.20;47.20;;;;;;1546488;73;2060;-70
2022/06/28 01:18:53;;;;;;;;;;;27.30;47.30;;;;;;1540787;76;651;-69
2022/06/28 01:20:55;;;;;;;;;;;27.20;47.30;;;;;;1551587;76;2169;-69
2022/06/28 01:22:57;;;;;;;;;;;27.20;47.30;;;;;;1545254;76;641;-69
2022/06/28 01:24:59;;;;;;;;;;;27.30;47.30;;;;;;1543898;76;658;-69
2022/06/28 01:27:01;;;;;;;;;;;27.20;47.20;;;;;;1532967;76;1209;-69
2022/06/28 01:29:03;;;;;;;;;;;27.20;47.30;;;;;;1512509;77;788;-70
2022/06/28 01:31:05;;;;;;;;;;;27.20;47.20;;;;;;1523437;77;696;-69
2022/06/28 01:33:07;;;;;;;;;;;27.20;47.20;;;;;;1522560;77;644;-69
2022/06/28 01:35:09;;;;;;;;;;;27.20;47.20;;;;;;1517054;77;690;-68
2022/06/28 01:37:11;;;;;;;;;;;27.20;47.20;;;;;;1518935;76;1130;-69
2022/06/28 01:39:13;;;;;;;;;;;27.20;47.20;;;;;;1522423;77;1567;-68
2022/06/28 01:41:36;;;;;;;;;;;27.20;47.20;;;;;;1488219;79;1941;-69
2022/06/28 01:43:19;;;;;;;;;;;27.20;47.20;;;;;;1498599;77;1101;-69
2022/06/28 01:45:21;;;;;;;;;;;27.20;47.20;;;;;;1523698;77;690;-68
2022/06/28 01:47:23;;;;;;;;;;;27.20;47.20;;;;;;1517289;76;1157;-67
2022/06/28 01:49:25;;;;;;;;;;;27.20;47.10;;;;;;1527208;77;680;-66
2022/06/28 01:51:27;;;;;;;;;;;27.20;47.20;;;;;;1518906;77;705;-66
2022/06/28 01:53:29;;;;;;;;;;;27.20;47.20;;;;;;1519334;77;698;-67
2022/06/28 01:55:30;;;;;;;;;;;27.20;47.10;;;;;;1511551;77;692;-68
2022/06/28 01:57:32;;;;;;;;;;;27.20;47.10;;;;;;1523098;76;1268;-71
2022/06/28 01:59:34;;;;;;;;;;;27.20;47.20;;;;;;1514584;77;682;-71
2022/06/28 02:01:37;;;;;;;;;;;27.20;47.20;;;;;;1503508;77;1925;-71
2022/06/28 02:03:40;;;;;;;;;;;27.20;47.20;;;;;;1518614;77;657;-71
2022/06/28 02:05:42;;;;;;;;;;;27.20;47.10;;;;;;1506524;77;690;-71
2022/06/28 02:07:48;;;;;;;;;;;27.20;47.10;;;;;;1529989;76;1051;-73
2022/06/28 02:09:49;;;;;;;;;;;27.20;47.20;;;;;;1528137;77;710;-74
2022/06/28 02:11:54;;;;;;;;;;;27.20;47.20;;;;;;1518216;77;669;-71
2022/06/28 02:13:56;;;;;;;;;;;27.20;47.10;;;;;;1525009;76;714;-71
2022/06/28 02:15:58;;;;;;;;;;;27.20;47.20;;;;;;1530164;76;1161;-71
2022/06/28 02:18:00;;;;;;;;;;;27.20;47.20;;;;;;1517514;77;795;-70
2022/06/28 02:20:02;;;;;;;;;;;27.20;47.20;;;;;;1519430;77;750;-71
2022/06/28 02:22:04;;;;;;;;;;;27.20;47.10;;;;;;1523450;77;1935;-70
2022/06/28 02:24:06;;;;;;;;;;;27.30;47.20;;;;;;1526383;77;677;-71
2022/06/28 02:26:11;;;;;;;;;;;27.20;47.20;;;;;;1479770;78;1181;-69
2022/06/28 02:28:11;;;;;;;;;;;27.20;47.20;;;;;;1476071;79;1638;-73
2022/06/28 02:30:13;;;;;;;;;;;27.20;47.20;;;;;;1499019;78;753;-71
2022/06/28 02:32:15;;;;;;;;;;;27.20;47.20;;;;;;1510815;77;671;-70
2022/06/28 02:41:16;;;;;;;;;;;27.10;47.20;;;;;;1510478;77;1889;-72
2022/06/28 02:43:18;;;;;;;;;;;27.20;47.20;;;;;;1507730;77;671;-71
2022/06/28 02:45:20;;;;;;;;;;;27.20;47.30;;;;;;1508993;77;679;-70
2022/06/28 02:47:22;;;;;;;;;;;27.10;47.20;;;;;;1508997;77;1143;-69
2022/06/28 02:49:24;;;;;;;;;;;27.20;47.30;;;;;;1508899;77;740;-70
2022/06/28 02:51:26;;;;;;;;;;;27.10;47.30;;;;;;1525827;77;669;-70
2022/06/28 02:53:28;;;;;;;;;;;27.20;47.20;;;;;;1528629;77;579;-70
2022/06/28 02:55:30;;;;;;;;;;;27.20;47.20;;;;;;1513740;77;665;-71
2022/06/28 02:57:32;;;;;;;;;;;27.20;47.10;;;;;;1511320;77;1152;-72
2022/06/28 02:59:34;;;;;;;;;;;27.20;47.20;;;;;;1515556;77;562;-71
2022/06/28 03:01:35;;;;;;;;;;;27.20;47.20;;;;;;1502361;77;1930;-71
2022/06/28 03:03:37;;;;;;;;;;;27.20;47.20;;;;;;1524609;77;833;-72
2022/06/28 03:05:39;;;;;;;;;;;27.10;47.30;;;;;;1522348;77;679;-70
2022/06/28 03:07:41;;;;;;;;;;;27.10;47.20;;;;;;1508201;77;1087;-69
2022/06/28 03:09:43;;;;;;;;;;;27.20;47.30;;;;;;1523472;77;606;-70
2022/06/28 03:11:45;;;;;;;;;;;27.20;47.20;;;;;;1518931;77;767;-71
2022/06/28 03:13:47;;;;;;;;;;;27.10;47.20;;;;;;1515632;77;690;-71
2022/06/28 03:15:49;;;;;;;;;;;27.20;47.20;;;;;;1526872;77;691;-71
2022/06/28 03:17:51;;;;;;;;;;;27.20;47.20;;;;;;1533469;76;773;-71
2022/06/28 03:19:52;;;;;;;;;;;27.20;47.20;;;;;;1523129;76;706;-71
2022/06/28 03:21:55;;;;;;;;;;;27.20;47.20;;;;;;1519347;77;1942;-69
2022/06/28 03:23:57;;;;;;;;;;;27.10;47.20;;;;;;1527342;77;737;-71
2022/06/28 03:25:59;;;;;;;;;;;27.20;47.20;;;;;;1529382;77;1163;-71
2022/06/28 03:28:00;;;;;;;;;;;27.20;47.20;;;;;;1518979;77;729;-70
2022/06/28 03:30:03;;;;;;;;;;;27.10;47.30;;;;;;1523048;77;1625;-71
2022/06/28 03:32:05;;;;;;;;;;;27.20;47.30;;;;;;1513341;77;677;-71
2022/06/28 03:34:07;;;;;;;;;;;27.10;47.30;;;;;;1523837;77;721;-70
2022/06/28 03:36:09;;;;;;;;;;;27.10;47.30;;;;;;1529007;77;1146;-71
2022/06/28 03:38:11;;;;;;;;;;;27.10;47.30;;;;;;1526356;77;684;-72
2022/06/28 03:40:13;;;;;;;;;;;27.10;47.40;;;;;;1532743;77;713;-74
2022/06/28 03:42:15;;;;;;;;;;;27.10;47.30;;;;;;1528766;77;1926;-70
2022/06/28 03:44:17;;;;;;;;;;;27.10;47.20;;;;;;1527374;77;663;-68
2022/06/28 03:46:19;;;;;;;;;;;27.20;47.30;;;;;;1524856;76;1153;-73
2022/06/28 03:48:21;;;;;;;;;;;27.10;47.10;;;;;;1524890;76;686;-70
2022/06/28 03:50:22;;;;;;;;;;;27.10;47.10;;;;;;1518194;77;704;-71
2022/06/28 03:52:28;;;;;;;;;;;27.10;47.00;;;;;;1525699;77;697;-71
2022/06/28 03:54:28;;;;;;;;;;;27.10;47.10;;;;;;1525973;77;1524;-73
2022/06/28 03:56:30;;;;;;;;;;;27.10;47.10;;;;;;1531028;76;1184;-70
2022/06/28 03:58:32;;;;;;;;;;;27.10;47.00;;;;;;1515565;77;773;-70
2022/06/28 04:00:34;;;;;;;;;;;27.10;47.10;;;;;;1521883;77;835;-70
2022/06/28 04:02:36;;;;;;;;;;;27.10;47.10;;;;;;1528605;77;1922;-70
2022/06/28 04:04:37;;;;;;;;;;;27.10;47.10;;;;;;1520584;77;550;-73
2022/06/28 04:06:39;;;;;;;;;;;27.10;47.00;;;;;;1531421;76;1144;-76
2022/06/28 04:08:41;;;;;;;;;;;27.10;47.00;;;;;;1522315;77;800;-72
2022/06/28 04:10:43;;;;;;;;;;;27.10;47.00;;;;;;1517274;77;707;-71
2022/06/28 04:12:45;;;;;;;;;;;27.10;47.10;;;;;;1534203;77;735;-70
2022/06/28 04:14:47;;;;;;;;;;;27.10;47.20;;;;;;1527447;77;724;-70
2022/06/28 04:16:49;;;;;;;;;;;27.10;47.10;;;;;;1512288;76;1165;-71
2022/06/28 04:18:51;;;;;;;;;;;27.10;47.10;;;;;;1523343;77;810;-70
2022/06/28 04:20:53;;;;;;;;;;;27.10;47.10;;;;;;1522528;77;684;-71
2022/06/28 04:22:54;;;;;;;;;;;27.10;47.10;;;;;;1529086;77;1929;-71
2022/06/28 04:24:56;;;;;;;;;;;27.10;47.10;;;;;;1525338;77;732;-71
2022/06/28 04:26:59;;;;;;;;;;;27.10;47.10;;;;;;1533704;76;1552;-70
2022/06/28 04:29:00;;;;;;;;;;;27.10;47.10;;;;;;1515642;77;698;-71
2022/06/28 04:31:02;;;;;;;;;;;27.10;47.20;;;;;;1531804;76;685;-69
2022/06/28 04:33:04;;;;;;;;;;;27.10;47.10;;;;;;1526660;77;704;-69
2022/06/28 04:35:07;;;;;;;;;;;27.10;47.10;;;;;;1521637;77;660;-71
2022/06/28 04:37:09;;;;;;;;;;;27.10;47.20;;;;;;1529770;76;1177;-73
2022/06/28 04:39:10;;;;;;;;;;;27.10;47.10;;;;;;1523411;77;702;-71
2022/06/28 04:41:12;;;;;;;;;;;27.10;47.10;;;;;;1521346;77;808;-72
2022/06/28 04:43:14;;;;;;;;;;;27.10;47.10;;;;;;1513991;77;1929;-72
2022/06/28 04:45:16;;;;;;;;;;;27.10;47.00;;;;;;1519039;77;722;-71
2022/06/28 04:47:18;;;;;;;;;;;27.10;47.10;;;;;;1522657;77;1150;-72
2022/06/28 04:49:20;;;;;;;;;;;27.10;47.10;;;;;;1519163;77;702;-70
2022/06/28 04:51:22;;;;;;;;;;;27.10;47.20;;;;;;1530892;77;728;-70
2022/06/28 04:53:23;;;;;;;;;;;27.10;47.10;;;;;;1523330;77;566;-67
2022/06/28 04:55:25;;;;;;;;;;;27.10;47.20;;;;;;1522939;77;672;-68
2022/06/28 04:57:27;;;;;;;;;;;27.10;46.90;;;;;;1525344;76;1198;-67
2022/06/28 04:59:29;;;;;;;;;;;27.10;47.00;;;;;;1518312;77;741;-69
2022/06/28 05:01:31;;;;;;;;;;;27.10;46.90;;;;;;1526147;77;725;-67
2022/06/28 05:03:33;;;;;;;;;;;27.10;47.00;;;;;;1522631;77;1928;-67
2022/06/28 05:05:35;;;;;;;;;;;27.10;47.00;;;;;;1518027;77;597;-68
2022/06/28 05:07:37;;;;;;;;;;;27.10;47.10;;;;;;1524856;76;1137;-68
2022/06/28 05:09:40;;;;;;;;;;;27.10;47.10;;;;;;1520714;77;712;-69
2022/06/28 05:11:42;;;;;;;;;;;27.10;47.10;;;;;;1519837;77;734;-67
2022/06/28 05:13:44;;;;;;;;;;;27.10;46.90;;;;;;1523077;77;709;-69
2022/06/28 05:15:46;;;;;;;;;;;27.10;46.90;;;;;;1537786;76;1016;-69
2022/06/28 05:17:48;;;;;;;;;;;27.10;46.90;;;;;;1532549;76;1160;-69
2022/06/28 05:19:51;;;;;;;;;;;27.10;47.00;;;;;;1516072;77;787;-71
2022/06/28 05:21:53;;;;;;;;;;;27.10;46.90;;;;;;1524234;76;737;-68
2022/06/28 05:23:54;;;;;;;;;;;27.10;47.00;;;;;;1530828;77;1935;-69
2022/06/28 05:25:56;;;;;;;;;;;27.10;46.90;;;;;;1525431;77;1195;-68
2022/06/28 05:27:58;;;;;;;;;;;27.00;47.00;;;;;;1523959;77;643;-68
2022/06/28 05:30:00;;;;;;;;;;;27.10;46.90;;;;;;1524064;77;663;-68
2022/06/28 05:32:02;;;;;;;;;;;27.00;46.90;;;;;;1533192;77;646;-68
2022/06/28 05:34:04;;;;;;;;;;;27.00;46.80;;;;;;1529047;77;657;-68
2022/06/28 05:36:06;;;;;;;;;;;27.10;46.90;;;;;;1529787;76;1158;-68
2022/06/28 05:38:08;;;;;;;;;;;27.10;47.00;;;;;;1533667;77;642;-66
2022/06/28 05:40:10;;;;;;;;;;;27.10;47.00;;;;;;1529035;77;694;-68
2022/06/28 05:42:14;;;;;;;;;;;27.10;47.00;;;;;;1533179;77;1933;-68
2022/06/28 05:44:16;;;;;;;;;;;27.10;46.90;;;;;;1528909;77;669;-70
2022/06/28 05:46:18;;;;;;;;;;;27.10;46.80;;;;;;1522439;76;1153;-72
2022/06/28 05:48:19;;;;;;;;;;;27.10;46.80;;;;;;1529434;77;623;-67
2022/06/28 05:50:21;;;;;;;;;;;27.00;46.80;;;;;;1523678;77;765;-69
2022/06/28 05:52:23;;;;;;;;;;;27.00;46.70;;;;;;1525381;76;669;-70
2022/06/28 05:54:25;;;;;;;;;;;27.00;46.70;;;;;;1530799;77;547;-71
2022/06/28 05:56:27;;;;;;;;;;;27.10;46.70;;;;;;1528890;76;1201;-68
2022/06/28 05:58:29;;;;;;;;;;;27.10;46.80;;;;;;1521586;77;730;-69
2022/06/28 06:00:33;;;;;;;;;;;27.00;46.70;;;;;;1524995;77;714;-68
2022/06/28 06:02:34;;;;;;;;;;;27.00;46.60;;;;;;1522026;77;1926;-69
2022/06/28 06:04:38;;;;;;;;;;;26.90;45.90;;;;;;1526868;77;693;-70
2022/06/28 06:06:40;;;;;;;;;;;27.00;46.50;;;;;;1534145;76;1588;-68
2022/06/28 06:08:41;;;;;;;;;;;27.00;46.50;;;;;;1524497;77;675;-66
2022/06/28 06:10:43;;;;;;;;;;;27.00;46.40;;;;;;1515984;77;692;-66
2022/06/28 06:12:45;;;;;;;;;;;27.00;46.40;;;;;;1527292;77;604;-69
2022/06/28 06:14:47;;;;;;;;;;;27.00;46.40;;;;;;1518700;76;721;-69
2022/06/28 06:16:52;;;;;;;;;;;27.00;46.40;;;;;;1522030;76;1110;-69
2022/06/28 06:18:54;;;;;;;;;;;27.00;46.40;;;;;;1522049;77;1484;-71
2022/06/28 06:20:56;;;;;;;;;;;27.00;46.40;;;;;;1526231;77;824;-70
2022/06/28 06:22:57;;;;;;;;;;;27.10;46.30;;;;;;1519101;77;1953;-69
2022/06/28 06:24:59;;;;;;;;;;;27.10;46.30;;;;;;1525158;77;749;-69
2022/06/28 06:27:01;;;;;;;;;;;27.10;46.30;;;;;;1528852;77;1182;-68
2022/06/28 06:29:03;;;;;;;;;;;27.10;46.30;;;;;;1533189;77;626;-69
2022/06/28 06:31:07;;;;;;;;;;;27.10;46.20;;;;;;1527550;76;808;-69
2022/06/28 06:33:09;;;;;;;;;;;27.10;46.10;;;;;;1522183;77;1617;-68
2022/06/28 06:35:11;;;;;;;;;;;27.10;46.00;;;;;;1525030;77;679;-66
2022/06/28 06:37:12;;;;;;;;;;;27.10;45.90;;;;;;1526120;76;1169;-68
2022/06/28 06:39:14;;;;;;;;;;;27.10;45.80;;;;;;1524427;77;734;-68
2022/06/28 06:41:16;;;;;;;;;;;27.10;45.80;;;;;;1522109;77;668;-68
2022/06/28 06:43:18;;;;;;;;;;;27.10;45.70;;;;;;1525188;77;1913;-68
2022/06/28 06:45:20;;;;;;;;;;;27.10;45.70;;;;;;1530698;77;698;-68
2022/06/28 06:47:22;;;;;;;;;;;27.10;45.60;;;;;;1516587;77;1148;-68
2022/06/28 06:49:25;;;;;;;;;;;27.10;45.60;;;;;;1528233;77;729;-69
2022/06/28 06:51:27;;;;;;;;;;;27.10;45.70;;;;;;1519898;77;697;-68
2022/06/28 06:53:29;;;;;;;;;;;27.00;45.80;;;;;;1524548;77;691;-68
2022/06/28 06:55:31;;;;;;;;;;;27.10;45.90;;;;;;1519925;77;684;-68
2022/06/28 06:57:32;;;;;;;;;;;27.10;46.00;;;;;;1529231;76;1170;-68
2022/06/28 06:59:34;;;;;;;;;;;27.20;46.00;;;;;;1521585;77;681;-68
2022/06/28 07:01:36;;;;;;;;;;;27.20;46.00;;;;;;1530010;77;646;-69
2022/06/28 07:03:44;;;;;;;;;;;27.20;45.80;;;;;;1523520;77;1945;-68
2022/06/28 07:05:42;;;;;;;;;;;27.30;45.80;;;;;;1522864;77;1588;-68
2022/06/28 07:07:44;;;;;;;;;;;27.20;45.80;;;;;;1514803;76;1106;-68
2022/06/28 07:09:46;;;;;;;;;;;27.30;45.90;;;;;;1522928;77;680;-68
2022/06/28 07:11:47;;;;;;;;;;;27.40;45.90;;;;;;1526336;77;656;-68
2022/06/28 07:13:49;;;;;;;;;;;27.40;45.50;;;;;;1526124;77;658;-68
2022/06/28 07:15:52;;;;;;;;;;;27.50;45.50;;;;;;1505845;77;1486;-68
2022/06/28 07:17:54;;;;;;;;;;;27.50;45.50;;;;;;1554229;73;3085;-71
2022/06/28 07:19:56;;;;;;;;;;;27.50;45.20;;;;;;1553353;75;657;-69
2022/06/28 07:21:58;;;;;;;;;;;27.60;45.00;;;;;;1551883;75;708;-70
2022/06/28 07:24:01;;;;;;;;;;;27.50;44.90;;;;;;1546282;74;1955;-69
2022/06/28 07:26:02;;;;;;;;;;;27.60;44.80;;;;;;1546153;75;824;-70
2022/06/28 07:28:08;;;;;;;;;;;27.50;44.50;;;;;;1528717;75;1159;-69
2022/06/28 07:30:08;;;;;;;;;;;27.60;44.50;;;;;;1495890;78;1776;-69
2022/06/28 07:32:10;;;;;;;;;;;27.60;44.50;;;;;;1495770;78;686;-69
2022/06/28 07:34:12;;;;;;;;;;;27.50;44.30;;;;;;1508808;77;647;-69
2022/06/28 07:36:15;;;;;;;;;;;27.50;44.40;;;;;;1516275;78;711;-69
2022/06/28 07:38:17;;;;;;;;;;;27.50;44.30;;;;;;1517029;77;651;-71
2022/06/28 07:40:19;;;;;;;;;;;27.50;44.30;;;;;;1518046;77;681;-69
2022/06/28 07:42:21;;;;;;;;;;;27.50;44.40;;;;;;1518079;77;721;-71
2022/06/28 07:44:23;;;;;;;;;;;27.50;44.30;;;;;;1515325;77;1917;-69
2022/06/28 07:46:25;;;;;;;;;;;27.60;44.20;;;;;;1522294;77;1135;-69
2022/06/28 07:48:26;;;;;;;;;;;27.60;44.10;;;;;;1525032;76;691;-69
2022/06/28 07:52:48;;;;;;;;;;;27.60;44.10;;;;;;1502334;77;1675;-69
2022/06/28 07:54:50;;;;;;;;;;;27.50;44.00;;;;;;1520769;77;705;-69
2022/06/28 07:56:52;;;;;;;;;;;27.60;44.10;;;;;;1511813;77;1189;-70
2022/06/28 07:58:54;;;;;;;;;;;27.50;44.10;;;;;;1512955;77;711;-69
2022/06/28 08:00:56;;;;;;;;;;;27.50;44.00;;;;;;1516515;77;800;-67
2022/06/28 08:02:57;;;;;;;;;;;27.40;44.00;;;;;;1517326;77;1936;-68
2022/06/28 08:04:59;;;;;;;;;;;27.40;44.00;;;;;;1512336;77;738;-69
2022/06/28 08:07:01;;;;;;;;;;;27.50;44.00;;;;;;1516357;77;1126;-67
2022/06/28 08:09:03;;;;;;;;;;;27.40;43.80;;;;;;1515863;77;766;-67
2022/06/28 08:11:05;;;;;;;;;;;27.40;43.90;;;;;;1516882;77;1613;-67
2022/06/28 08:13:07;;;;;;;;;;;27.40;43.90;;;;;;1520884;76;755;-69
2022/06/28 08:15:09;;;;;;;;;;;27.40;43.90;;;;;;1495231;77;745;-70
2022/06/28 08:17:11;;;;;;;;;;;27.40;44.00;;;;;;1520862;76;1094;-70
2022/06/28 08:19:15;;;;;;;;;;;27.30;44.20;;;;;;1520015;77;786;-72
2022/06/28 08:21:16;;;;;;;;;;;27.40;44.10;;;;;;1515006;77;692;-70
2022/06/28 08:23:18;;;;;;;;;;;27.40;44.20;;;;;;1510950;77;1934;-69
2022/06/28 08:25:20;;;;;;;;;;;27.40;44.10;;;;;;1518380;77;694;-70
2022/06/28 08:27:22;;;;;;;;;;;27.40;44.10;;;;;;1513696;77;1249;-70
2022/06/28 08:29:24;;;;;;;;;;;27.40;44.10;;;;;;1511889;77;763;-70
2022/06/28 08:31:26;;;;;;;;;;;27.40;44.00;;;;;;1514282;78;696;-71
2022/06/28 08:33:28;;;;;;;;;;;27.30;44.10;;;;;;1517476;77;786;-71
2022/06/28 08:35:30;;;;;;;;;;;27.30;44.20;;;;;;1508050;77;684;-72
2022/06/28 08:37:32;;;;;;;;;;;27.30;44.20;;;;;;1513584;77;1133;-72
2022/06/28 08:39:34;;;;;;;;;;;27.30;44.20;;;;;;1515039;77;647;-70
2022/06/28 08:41:35;;;;;;;;;;;27.30;44.30;;;;;;1507830;77;700;-71
2022/06/28 08:43:37;;;;;;;;;;;27.20;44.40;;;;;;1515256;77;1948;-69
2022/06/28 08:45:39;;;;;;;;;;;27.30;44.40;;;;;;1518036;77;746;-71
2022/06/28 08:47:42;;;;;;;;;;;27.20;44.20;;;;;;1512991;77;1157;-69
2022/06/28 08:49:58;;;;;;;;;;;27.30;44.20;;;;;;1515178;77;835;-70
2022/06/28 08:51:59;;;;;;;;;;;27.20;44.20;;;;;;1514307;77;1527;-71
2022/06/28 08:54:02;;;;;;;;;;;27.30;44.20;;;;;;1512860;77;702;-68
2022/06/28 08:56:05;;;;;;;;;;;27.30;44.20;;;;;;1509867;77;799;-72
2022/06/28 08:58:08;;;;;;;;;;;27.30;44.10;;;;;;1502849;77;1132;-71
2022/06/28 09:00:10;;;;;;;;;;;27.20;44.30;;;;;;1513910;77;639;-73
2022/06/28 09:02:13;;;;;;;;;;;27.30;44.30;;;;;;1512440;77;772;-71
2022/06/28 09:04:15;;;;;;;;;;;27.20;44.40;;;;;;1509189;77;1944;-74
2022/06/28 09:06:16;;;;;;;;;;;27.20;44.50;;;;;;1513207;77;787;-74
2022/06/28 09:08:18;;;;;;;;;;;27.20;44.70;;;;;;1515411;77;1548;-75
2022/06/28 09:10:20;;;;;;;;;;;27.20;44.70;;;;;;1512307;77;656;-75
2022/06/28 09:12:22;;;;;;;;;;;27.20;44.80;;;;;;1514653;78;706;-73
2022/06/28 09:14:33;;;;;;;;;;;27.30;44.80;;;;;;1516539;77;770;-74
2022/06/28 09:16:35;;;;;;;;;;;27.30;44.80;;;;;;1516197;77;1122;-73
2022/06/28 09:18:38;;;;;;;;;;;27.30;44.80;;;;;;1515228;78;785;-73
2022/06/28 09:20:40;;;;;;;;;;;27.30;44.70;;;;;;1514208;77;642;-73
2022/06/28 09:22:43;;;;;;;;;;;27.40;44.70;;;;;;1513051;77;702;-76
2022/06/28 09:24:45;;;;;;;;;;;27.40;44.70;;;;;;1515891;77;1961;-73
2022/06/28 09:26:48;;;;;;;;;;;27.40;44.70;;;;;;1513728;77;1206;-73
2022/06/28 09:28:50;;;;;;;;;;;27.40;44.70;;;;;;1512258;77;703;-72
2022/06/28 09:30:52;;;;;;;;;;;27.40;44.60;;;;;;1514835;77;702;-72
2022/06/28 09:32:54;;;;;;;;;;;27.40;44.50;;;;;;1518405;77;802;-76
2022/06/28 09:35:03;;;;;;;;;;;27.40;44.50;;;;;;1516637;77;756;-73
2022/06/28 09:37:06;;;;;;;;;;;27.40;44.50;;;;;;1516342;77;1127;-73
2022/06/28 09:39:14;;;;;;;;;;;27.40;44.50;;;;;;1515055;77;829;-74
2022/06/28 09:41:26;;;;;;;;;;;27.40;44.50;;;;;;1514329;77;675;-71
2022/06/28 09:43:35;;;;;;;;;;;27.50;44.40;;;;;;1513280;78;687;-73
2022/06/28 09:45:37;;;;;;;;;;;27.50;44.40;;;;;;1515605;77;649;-76
2022/06/28 09:47:41;;;;;;;;;;;27.50;44.40;;;;;;1516982;77;1131;-75
2022/06/28 09:49:44;;;;;;;;;;;27.50;44.40;;;;;;1511775;77;1618;-73
2022/06/28 09:51:46;;;;;;;;;;;27.40;44.40;;;;;;1513752;77;2040;-75
2022/06/28 09:53:48;;;;;;;;;;;27.50;44.40;;;;;;1515654;77;925;-75
2022/06/28 09:55:50;;;;;;;;;;;27.50;44.40;;;;;;1518185;77;761;-73
2022/06/28 09:57:52;;;;;;;;;;;27.50;44.20;;;;;;1517424;77;1125;-74
2022/06/28 09:59:54;;;;;;;;;;;27.60;44.20;;;;;;1510519;77;650;-74
2022/06/28 10:01:56;;;;;;;;;;;27.60;44.10;;;;;;1513375;77;711;-73
2022/06/28 10:03:58;;;;;;;;;;;27.40;44.20;;;;;;1509903;77;1929;-75
2022/06/28 10:06:01;;;;;;;;;;;27.50;44.20;;;;;;1500773;77;666;-74
2022/06/28 10:08:03;;;;;;;;;;;27.50;44.20;;;;;;1512754;77;1196;-75
2022/06/28 10:10:06;;;;;;;;;;;27.60;44.00;;;;;;1512555;77;669;-76
2022/06/28 10:16:58;;;;;;;;;;;27.60;44.10;;;;;;1514862;77;1873;-75
2022/06/28 10:18:59;;;;;;;;;;;27.40;44.10;;;;;;1513188;77;1447;-75
2022/06/28 10:21:01;;;;;;;;;;;27.40;44.10;;;;;;1512697;77;706;-75
2022/06/28 10:23:24;;;;;;;;;;;27.50;44.10;;;;;;1512969;77;678;-76
2022/06/28 10:25:26;;;;;;;;;;;27.50;44.10;;;;;;1511931;77;1929;-76
2022/06/28 10:27:28;;;;;;;;;;;27.40;44.10;;;;;;1516185;77;1135;-74
2022/06/28 10:29:30;;;;;;;;;;;27.40;44.20;;;;;;1521377;77;657;-73
2022/06/28 10:31:33;;;;;;;;;;;27.40;44.20;;;;;;1515060;77;682;-73
2022/06/28 10:33:42;;;;;;;;;;;27.40;44.30;;;;;;1488104;78;827;-73
2022/06/28 10:35:47;;;;;;;;;;;27.40;44.30;;;;;;1511048;78;742;-74
2022/06/28 10:37:59;;;;;;;;;;;27.50;44.20;;;;;;1512226;77;2002;-75
2022/06/28 10:40:18;;;;;;;;;;;27.40;44.20;;;;;;1494650;78;1035;-75
2022/06/28 10:42:21;;;;;;;;;;;27.40;44.40;;;;;;1465559;80;1194;-70
2022/06/28 10:44:27;;;;;;;;;;;27.40;44.30;;;;;;1477204;78;1929;-69
2022/06/28 10:46:29;;;;;;;;;;;27.40;44.20;;;;;;1515276;77;1159;-69
2022/06/28 10:48:31;;;;;;;;;;;27.30;43.80;;;;;;1508460;77;686;-69
2022/06/28 10:50:35;;;;;;;;;;;27.30;43.60;;;;;;1513204;77;644;-69
2022/06/28 10:52:36;;;;;;;;;;;27.20;43.80;;;;;;1510523;77;1720;-71
2022/06/28 10:54:40;;;;;;;;;;;27.10;43.90;;;;;;1510423;77;567;-69
2022/06/28 10:56:42;;;;;;;;;;;27.10;43.90;;;;;;1511903;77;1130;-70
2022/06/28 10:59:07;;;;;;;;;;;27.10;43.70;;;;;;1514478;77;738;-69
2022/06/28 11:01:05;;;;;;;;;;;27.10;43.70;;;;;;1507403;77;1663;-69
2022/06/28 11:03:07;;;;;;;;;;;27.10;43.80;;;;;;1509204;77;655;-70
2022/06/28 11:05:09;;;;;;;;;;;27.00;43.90;;;;;;1513118;77;1945;-70
2022/06/28 11:07:22;;;;;;;;;;;27.00;44.00;;;;;;1511383;77;1168;-72
2022/06/28 11:09:25;;;;;;;;;;;26.80;43.60;;;;;;1516414;77;769;-71
2022/06/28 11:11:28;;;;;;;;;;;26.70;44.00;;;;;;1512986;77;923;-67
2022/06/28 11:13:30;;;;;;;;;;;26.60;44.40;;;;;;1484158;78;905;-69
2022/06/28 11:15:35;;;;;;;;;;;26.60;44.50;;;;;;1513384;77;660;-70
2022/06/28 11:17:37;;;;;;;;;;;26.50;44.70;;;;;;1512996;77;1549;-70
2022/06/28 11:19:39;;;;;;;;;;;26.50;44.70;;;;;;1512156;77;807;-68
2022/06/28 11:21:41;;;;;;;;;;;26.50;44.50;;;;;;1513182;77;741;-67
2022/06/28 11:23:43;;;;;;;;;;;26.40;44.40;;;;;;1514141;77;719;-69
2022/06/28 11:28:04;;;;;;;;;;;26.30;44.90;;;;;;1506244;77;1632;-70
2022/06/28 11:30:06;;;;;;;;;;;26.20;44.80;;;;;;1514443;77;692;-70
2022/06/28 11:32:18;;;;;;;;;;;26.20;44.90;;;;;;1514277;77;781;-69
2022/06/28 11:34:24;;;;;;;;;;;26.20;45.00;;;;;;1514250;77;629;-69
2022/06/28 11:36:30;;;;;;;;;;;26.20;44.50;;;;;;1513408;77;1149;-70
2022/06/28 11:38:32;;;;;;;;;;;26.20;44.70;;;;;;1510452;77;710;-70
2022/06/28 11:40:44;;;;;;;;;;;26.20;44.40;;;;;;1515379;77;849;-71
2022/06/28 11:42:47;;;;;;;;;;;26.00;45.00;;;;;;1503217;77;693;-71
2022/06/28 11:44:50;;;;;;;;;;;26.10;45.20;;;;;;1513684;77;1945;-72
2022/06/28 11:46:52;;;;;;;;;;;26.00;45.10;;;;;;1502472;77;1147;-71
2022/06/28 11:48:55;;;;;;;;;;;26.00;45.40;;;;;;1518402;77;705;-71
2022/06/28 11:50:57;;;;;;;;;;;26.10;45.20;;;;;;1514489;77;673;-71
2022/06/28 11:52:59;;;;;;;;;;;26.10;45.10;;;;;;1514910;77;674;-72
2022/06/28 11:55:01;;;;;;;;;;;26.20;45.10;;;;;;1487036;78;780;-72
2022/06/28 11:57:15;;;;;;;;;;;26.20;45.00;;;;;;1512620;77;1458;-71
2022/06/28 11:59:17;;;;;;;;;;;26.20;45.00;;;;;;1510333;77;685;-71
2022/06/28 12:01:21;;;;;;;;;;;26.20;44.80;;;;;;1515422;77;770;-71
2022/06/28 12:03:22;;;;;;;;;;;26.10;44.90;;;;;;1514844;77;666;-71
2022/06/28 12:05:29;;;;;;;;;;;26.10;45.00;;;;;;1518972;77;1928;-70
2022/06/28 12:07:35;;;;;;;;;;;26.20;45.00;;;;;;1515895;77;1309;-71
2022/06/28 12:09:38;;;;;;;;;;;26.20;45.00;;;;;;1510269;77;719;-71
2022/06/28 12:11:41;;;;;;;;;;;26.30;45.00;;;;;;1505135;77;1829;-71
2022/06/28 12:13:43;;;;;;;;;;;26.20;45.00;;;;;;1515224;77;693;-71
2022/06/28 12:15:46;;;;;;;;;;;26.20;44.90;;;;;;1513341;77;675;-72
2022/06/28 12:17:48;;;;;;;;;;;26.30;44.90;;;;;;1514605;77;1170;-71
2022/06/28 12:19:50;;;;;;;;;;;26.20;44.80;;;;;;1511397;77;816;-72
2022/06/28 12:21:59;;;;;;;;;;;26.40;44.80;;;;;;1513415;77;562;-70
2022/06/28 12:24:01;;;;;;;;;;;26.40;44.70;;;;;;1513628;77;769;-70
2022/06/28 12:26:03;;;;;;;;;;;26.40;44.80;;;;;;1512588;77;1967;-70
2022/06/28 12:28:05;;;;;;;;;;;26.40;44.70;;;;;;1516989;77;1098;-72
2022/06/28 12:30:07;;;;;;;;;;;26.40;44.60;;;;;;1513821;77;700;-71